createdAt,value
2022-11-09T00:00:21.521Z,0.00
2022-11-09T00:00:52.348Z,0.00
2022-11-09T00:01:23.494Z,0.00
2022-11-09T00:01:52.303Z,0.00
2022-11-09T00:02:23.635Z,0.00
2022-11-09T00:02:54.529Z,0.00
2022-11-09T00:03:24.938Z,0.00
2022-11-09T00:03:55.685Z,0.00
2022-11-09T00:04:26.952Z,0.00
2022-11-09T00:04:57.397Z,0.00
2022-11-09T00:06:01.581Z,0.00
2022-11-09T00:06:31.918Z,0.00
2022-11-09T00:07:01.989Z,0.00
2022-11-09T00:07:32.920Z,0.00
2022-11-09T00:08:04.164Z,0.00
2022-11-09T00:08:34.717Z,0.00
2022-11-09T00:09:08.050Z,0.00
2022-11-09T00:09:37.211Z,0.00
2022-11-09T00:10:09.396Z,0.00
2022-11-09T00:10:40.979Z,0.00
2022-11-09T00:11:12.085Z,0.00
2022-11-09T00:11:42.083Z,0.00
2022-11-09T00:12:11.922Z,0.00
2022-11-09T00:12:42.434Z,0.00
2022-11-09T00:13:14.183Z,0.00
2022-11-09T00:14:20.699Z,0.00
2022-11-09T00:14:47.127Z,0.00
2022-11-09T00:15:17.779Z,0.00
2022-11-09T00:15:52.891Z,0.00
2022-11-09T00:16:20.068Z,0.00
2022-11-09T00:16:53.072Z,0.00
2022-11-09T00:17:22.088Z,0.00
2022-11-09T00:17:53.411Z,0.00
2022-11-09T00:18:24.042Z,0.00
2022-11-09T00:18:54.732Z,0.00
2022-11-09T00:19:25.580Z,0.00
2022-11-09T00:19:56.600Z,0.00
2022-11-09T00:20:27.658Z,0.00
2022-11-09T00:21:01.670Z,0.00
2022-11-09T00:21:32.997Z,0.00
2022-11-09T00:22:02.867Z,0.00
2022-11-09T00:22:34.162Z,0.00
2022-11-09T00:23:04.112Z,0.00
2022-11-09T00:23:33.915Z,0.00
2022-11-09T00:24:05.311Z,0.00
2022-11-09T00:24:35.800Z,0.00
2022-11-09T00:25:07.180Z,0.00
2022-11-09T00:25:37.419Z,0.00
2022-11-09T00:26:08.984Z,0.00
2022-11-09T00:26:42.098Z,0.00
2022-11-09T00:27:17.311Z,0.00
2022-11-09T00:27:42.222Z,0.00
2022-11-09T00:28:13.030Z,0.00
2022-11-09T00:28:44.143Z,0.00
2022-11-09T00:29:14.762Z,0.00
2022-11-09T00:29:45.785Z,0.00
2022-11-09T00:30:17.380Z,0.00
2022-11-09T00:30:47.783Z,0.00
2022-11-09T00:31:20.500Z,0.00
2022-11-09T00:31:51.900Z,0.00
2022-11-09T00:32:27.495Z,0.00
2022-11-09T00:32:53.429Z,0.00
2022-11-09T00:33:23.158Z,0.00
2022-11-09T00:33:54.844Z,0.00
2022-11-09T00:34:25.112Z,0.00
2022-11-09T00:34:56.016Z,0.00
2022-11-09T00:35:27.051Z,0.00
2022-11-09T00:35:57.792Z,0.00
2022-11-09T00:36:30.051Z,0.00
2022-11-09T00:37:02.151Z,0.00
2022-11-09T00:37:32.441Z,0.00
2022-11-09T00:38:03.133Z,0.00
2022-11-09T00:38:33.054Z,0.00
2022-11-09T00:39:03.949Z,0.00
2022-11-09T00:39:35.253Z,0.00
2022-11-09T00:40:06.934Z,0.00
2022-11-09T00:40:36.813Z,0.00
2022-11-09T00:41:08.141Z,0.00
2022-11-09T00:41:39.527Z,0.00
2022-11-09T00:42:12.416Z,0.00
2022-11-09T00:42:43.349Z,0.00
2022-11-09T00:43:13.297Z,0.00
2022-11-09T00:43:43.746Z,0.00
2022-11-09T00:44:14.065Z,0.00
2022-11-09T00:44:45.239Z,0.00
2022-11-09T00:45:15.812Z,0.00
2022-11-09T00:45:46.528Z,0.00
2022-11-09T00:46:17.941Z,0.00
2022-11-09T00:47:06.077Z,0.00
2022-11-09T00:47:22.372Z,0.00
2022-11-09T00:47:53.598Z,0.00
2022-11-09T00:48:22.947Z,0.00
2022-11-09T00:48:53.901Z,0.00
2022-11-09T00:49:24.409Z,0.00
2022-11-09T00:49:54.907Z,0.00
2022-11-09T00:50:26.668Z,0.00
2022-11-09T00:50:57.652Z,0.00
2022-11-09T00:51:27.708Z,0.00
2022-11-09T00:51:58.705Z,0.00
2022-11-09T00:52:31.437Z,0.00
2022-11-09T00:53:02.973Z,0.00
2022-11-09T00:53:32.972Z,0.00
2022-11-09T00:54:03.588Z,0.00
2022-11-09T00:54:34.180Z,0.00
2022-11-09T00:55:05.857Z,0.00
2022-11-09T00:55:53.329Z,0.00
2022-11-09T00:56:07.248Z,0.00
2022-11-09T00:56:37.837Z,0.00
2022-11-09T00:57:10.575Z,0.00
2022-11-09T00:57:42.528Z,0.00
2022-11-09T00:58:12.644Z,0.00
2022-11-09T00:58:43.101Z,0.00
2022-11-09T00:59:13.377Z,0.00
2022-11-09T01:00:15.569Z,0.00
2022-11-09T01:00:45.663Z,0.00
2022-11-09T01:01:16.974Z,0.00
2022-11-09T01:01:48.045Z,0.00
2022-11-09T01:02:18.439Z,0.00
2022-11-09T01:02:51.342Z,0.00
2022-11-09T01:03:22.396Z,0.00
2022-11-09T01:03:52.552Z,0.00
2022-11-09T01:04:24.559Z,0.00
2022-11-09T01:05:32.499Z,0.00
2022-11-09T01:05:55.535Z,0.00
2022-11-09T01:06:27.050Z,0.00
2022-11-09T01:06:58.296Z,0.00
2022-11-09T01:07:28.730Z,0.00
2022-11-09T01:08:01.555Z,0.00
2022-11-09T01:08:32.557Z,0.00
2022-11-09T01:09:02.478Z,0.00
2022-11-09T01:09:58.127Z,0.00
2022-11-09T01:10:03.656Z,0.00
2022-11-09T01:12:30.646Z,0.00
2022-11-09T01:16:06.186Z,0.00
2022-11-09T01:16:51.071Z,0.00
2022-11-09T01:17:22.253Z,0.00
2022-11-09T01:17:59.786Z,0.00
2022-11-09T01:18:38.554Z,0.00
2022-11-09T01:19:09.139Z,0.00
2022-11-09T01:19:22.848Z,0.00
2022-11-09T01:19:59.796Z,0.00
2022-11-09T01:20:25.187Z,0.00
2022-11-09T01:20:55.252Z,0.00
2022-11-09T01:21:41.525Z,0.00
2022-11-09T01:21:58.124Z,0.00
2022-11-09T01:22:50.377Z,0.00
2022-11-09T01:23:00.191Z,0.00
2022-11-09T01:23:35.409Z,0.00
2022-11-09T01:24:02.457Z,0.00
2022-11-09T01:24:35.504Z,0.00
2022-11-09T01:25:06.825Z,0.00
2022-11-09T01:25:41.382Z,0.00
2022-11-09T01:26:06.954Z,0.00
2022-11-09T01:26:37.474Z,0.00
2022-11-09T01:27:07.260Z,0.00
2022-11-09T01:27:38.044Z,0.00
2022-11-09T01:28:09.678Z,0.00
2022-11-09T01:28:40.235Z,0.00
2022-11-09T01:29:12.084Z,0.00
2022-11-09T01:29:43.158Z,0.00
2022-11-09T01:30:16.391Z,0.00
2022-11-09T01:30:46.177Z,0.00
2022-11-09T01:31:16.962Z,0.00
2022-11-09T01:31:47.331Z,0.00
2022-11-09T01:32:18.134Z,0.00
2022-11-09T01:33:18.872Z,0.00
2022-11-09T01:33:50.327Z,0.00
2022-11-09T01:34:21.412Z,0.00
2022-11-09T01:35:23.173Z,0.00
2022-11-09T01:35:56.199Z,0.00
2022-11-09T01:36:56.580Z,0.00
2022-11-09T01:37:27.578Z,0.00
2022-11-09T01:37:57.969Z,0.00
2022-11-09T01:38:28.943Z,0.00
2022-11-09T01:39:01.277Z,0.00
2022-11-09T01:39:31.247Z,0.00
2022-11-09T01:40:03.075Z,0.00
2022-11-09T01:40:36.469Z,0.00
2022-11-09T01:41:04.582Z,0.00
2022-11-09T01:41:39.087Z,0.00
2022-11-09T01:42:07.108Z,0.00
2022-11-09T01:42:38.444Z,0.00
2022-11-09T01:43:09.129Z,0.00
2022-11-09T01:43:39.795Z,0.00
2022-11-09T01:44:10.522Z,0.00
2022-11-09T01:44:41.233Z,0.00
2022-11-09T01:45:12.863Z,0.00
2022-11-09T01:45:43.740Z,0.00
2022-11-09T01:46:15.164Z,0.00
2022-11-09T01:46:47.121Z,0.00
2022-11-09T01:47:17.814Z,0.00
2022-11-09T01:47:47.610Z,0.00
2022-11-09T01:48:18.791Z,0.00
2022-11-09T01:48:49.655Z,0.00
2022-11-09T01:49:20.415Z,0.00
2022-11-09T01:49:52.132Z,0.00
2022-11-09T01:50:29.290Z,0.00
2022-11-09T01:50:53.503Z,0.00
2022-11-09T01:51:25.377Z,0.00
2022-11-09T01:51:57.505Z,0.00
2022-11-09T01:52:28.756Z,0.00
2022-11-09T01:52:57.354Z,0.00
2022-11-09T01:53:32.087Z,0.00
2022-11-09T01:53:59.655Z,0.00
2022-11-09T01:55:01.708Z,0.00
2022-11-09T01:55:32.295Z,0.00
2022-11-09T01:56:03.293Z,0.00
2022-11-09T01:56:34.851Z,0.00
2022-11-09T01:57:07.282Z,0.00
2022-11-09T01:57:37.591Z,0.00
2022-11-09T01:58:07.882Z,0.00
2022-11-09T01:58:41.337Z,0.00
2022-11-09T01:59:10.153Z,0.00
2022-11-09T01:59:40.331Z,0.00
2022-11-09T02:00:12.364Z,0.00
2022-11-09T02:00:43.377Z,0.00
2022-11-09T02:01:13.738Z,0.00
2022-11-09T02:01:44.167Z,0.00
2022-11-09T02:02:17.048Z,0.00
2022-11-09T02:02:49.002Z,0.00
2022-11-09T02:03:18.808Z,0.00
2022-11-09T02:03:49.238Z,0.00
2022-11-09T02:04:48.403Z,0.00
2022-11-09T02:05:48.109Z,0.00
2022-11-09T02:05:53.342Z,0.00
2022-11-09T02:06:23.664Z,0.00
2022-11-09T02:08:01.162Z,0.00
2022-11-09T02:08:29.824Z,0.00
2022-11-09T02:08:59.926Z,0.00
2022-11-09T02:09:30.742Z,0.00
2022-11-09T02:10:01.850Z,0.00
2022-11-09T02:10:31.881Z,0.00
2022-11-09T02:11:02.621Z,0.00
2022-11-09T02:11:33.464Z,0.00
2022-11-09T02:12:04.606Z,0.00
2022-11-09T02:12:35.505Z,0.00
2022-11-09T02:13:06.069Z,0.00
2022-11-09T02:13:37.791Z,0.00
2022-11-09T02:14:09.823Z,0.00
2022-11-09T02:14:40.648Z,0.00
2022-11-09T02:15:12.419Z,0.00
2022-11-09T02:15:45.511Z,0.00
2022-11-09T02:16:12.932Z,0.00
2022-11-09T02:16:43.343Z,0.00
2022-11-09T02:17:14.334Z,0.00
2022-11-09T02:17:45.277Z,0.00
2022-11-09T02:18:16.403Z,0.00
2022-11-09T02:18:47.548Z,0.00
2022-11-09T02:19:19.987Z,0.00
2022-11-09T02:19:51.155Z,0.00
2022-11-09T02:20:21.551Z,0.00
2022-11-09T02:20:52.003Z,0.00
2022-11-09T02:21:22.317Z,0.00
2022-11-09T02:21:53.415Z,0.00
2022-11-09T02:22:24.075Z,0.00
2022-11-09T02:22:55.003Z,0.00
2022-11-09T02:23:26.229Z,0.00
2022-11-09T02:23:57.706Z,0.00
2022-11-09T02:24:30.581Z,0.00
2022-11-09T02:25:00.102Z,0.00
2022-11-09T02:25:31.009Z,0.00
2022-11-09T02:26:01.299Z,0.00
2022-11-09T02:26:32.444Z,0.00
2022-11-09T02:27:03.239Z,0.00
2022-11-09T02:27:34.008Z,0.00
2022-11-09T02:28:05.543Z,0.00
2022-11-09T02:28:35.847Z,0.00
2022-11-09T02:29:07.063Z,0.00
2022-11-09T02:29:39.109Z,0.00
2022-11-09T02:30:11.991Z,0.00
2022-11-09T02:30:40.788Z,0.00
2022-11-09T02:31:28.515Z,0.00
2022-11-09T02:31:42.447Z,0.00
2022-11-09T02:32:13.600Z,0.00
2022-11-09T02:32:44.104Z,0.00
2022-11-09T02:33:15.430Z,0.00
2022-11-09T02:33:46.612Z,0.00
2022-11-09T02:34:17.389Z,0.00
2022-11-09T02:34:49.962Z,0.00
2022-11-09T02:35:20.661Z,0.00
2022-11-09T02:35:50.573Z,0.00
2022-11-09T02:36:21.319Z,0.00
2022-11-09T02:36:52.309Z,0.00
2022-11-09T02:37:23.626Z,0.00
2022-11-09T02:37:54.047Z,0.00
2022-11-09T02:38:24.869Z,0.00
2022-11-09T02:38:57.093Z,0.00
2022-11-09T02:39:27.341Z,0.00
2022-11-09T02:39:59.804Z,0.00
2022-11-09T02:40:31.299Z,0.00
2022-11-09T02:41:18.190Z,0.00
2022-11-09T02:41:31.877Z,0.00
2022-11-09T02:42:03.385Z,0.00
2022-11-09T02:42:33.541Z,0.00
2022-11-09T02:43:04.185Z,0.00
2022-11-09T02:43:35.284Z,0.00
2022-11-09T02:44:06.133Z,0.00
2022-11-09T02:44:37.192Z,0.00
2022-11-09T02:45:10.071Z,0.00
2022-11-09T02:45:40.296Z,0.00
2022-11-09T02:46:11.500Z,0.00
2022-11-09T02:46:41.280Z,0.00
2022-11-09T02:47:12.173Z,0.00
2022-11-09T02:47:43.761Z,0.00
2022-11-09T02:48:14.088Z,0.00
2022-11-09T02:49:03.018Z,0.00
2022-11-09T02:49:16.460Z,0.00
2022-11-09T02:49:47.209Z,0.00
2022-11-09T02:50:18.951Z,0.00
2022-11-09T02:50:50.843Z,0.00
2022-11-09T02:51:20.867Z,0.00
2022-11-09T02:51:51.380Z,0.00
2022-11-09T02:52:22.333Z,0.00
2022-11-09T02:53:24.222Z,0.00
2022-11-09T02:53:55.224Z,0.00
2022-11-09T02:54:26.067Z,0.00
2022-11-09T02:54:57.296Z,0.00
2022-11-09T02:55:31.622Z,0.00
2022-11-09T02:56:01.391Z,0.00
2022-11-09T02:56:47.084Z,0.00
2022-11-09T02:57:01.905Z,0.00
2022-11-09T02:57:32.423Z,0.00
2022-11-09T02:58:04.018Z,0.00
2022-11-09T02:58:34.467Z,0.00
2022-11-09T02:59:05.188Z,0.00
2022-11-09T02:59:36.317Z,0.00
2022-11-09T03:00:07.687Z,0.00
2022-11-09T03:00:38.567Z,0.00
2022-11-09T03:01:10.781Z,0.00
2022-11-09T03:01:41.604Z,0.00
2022-11-09T03:02:13.095Z,0.00
2022-11-09T03:02:42.449Z,0.00
2022-11-09T03:03:13.635Z,0.00
2022-11-09T03:03:44.430Z,0.00
2022-11-09T03:04:15.534Z,0.00
2022-11-09T03:04:46.555Z,0.00
2022-11-09T03:05:17.671Z,0.00
2022-11-09T03:05:49.353Z,0.00
2022-11-09T03:06:28.430Z,0.00
2022-11-09T03:06:51.789Z,0.00
2022-11-09T03:07:22.243Z,0.00
2022-11-09T03:07:52.375Z,0.00
2022-11-09T03:08:23.705Z,0.00
2022-11-09T03:08:56.516Z,0.00
2022-11-09T03:09:25.586Z,0.00
2022-11-09T03:09:56.369Z,0.00
2022-11-09T03:10:28.504Z,0.00
2022-11-09T03:10:58.262Z,0.00
2022-11-09T03:11:43.481Z,0.00
2022-11-09T03:12:01.966Z,0.00
2022-11-09T03:12:48.993Z,0.00
2022-11-09T03:13:02.353Z,0.00
2022-11-09T03:13:33.883Z,0.00
2022-11-09T03:14:04.153Z,0.00
2022-11-09T03:14:35.400Z,0.00
2022-11-09T03:15:07.674Z,0.00
2022-11-09T03:15:38.135Z,0.00
2022-11-09T03:16:08.596Z,0.00
2022-11-09T03:16:42.061Z,0.00
2022-11-09T03:17:11.846Z,0.00
2022-11-09T03:17:41.763Z,0.00
2022-11-09T03:18:13.203Z,0.00
2022-11-09T03:18:43.678Z,0.00
2022-11-09T03:19:14.642Z,0.00
2022-11-09T03:19:45.322Z,0.00
2022-11-09T03:20:16.777Z,0.00
2022-11-09T03:20:47.182Z,0.00
2022-11-09T03:21:18.491Z,0.00
2022-11-09T03:21:50.505Z,0.00
2022-11-09T03:22:21.810Z,0.00
2022-11-09T03:22:51.669Z,0.00
2022-11-09T03:23:22.931Z,0.00
2022-11-09T03:23:53.490Z,0.00
2022-11-09T03:24:24.421Z,0.00
2022-11-09T03:24:55.277Z,0.00
2022-11-09T03:25:26.227Z,0.00
2022-11-09T03:25:57.378Z,0.00
2022-11-09T03:26:28.606Z,0.00
2022-11-09T03:27:01.203Z,0.00
2022-11-09T03:27:32.698Z,0.00
2022-11-09T03:28:02.219Z,0.00
2022-11-09T03:28:50.863Z,0.00
2022-11-09T03:29:04.082Z,0.00
2022-11-09T03:29:34.170Z,0.00
2022-11-09T03:30:06.574Z,0.00
2022-11-09T03:30:36.228Z,0.00
2022-11-09T03:31:07.715Z,0.00
2022-11-09T03:31:38.849Z,0.00
2022-11-09T03:32:11.893Z,0.00
2022-11-09T03:32:44.694Z,0.00
2022-11-09T03:33:12.545Z,0.00
2022-11-09T03:33:42.477Z,0.00
2022-11-09T03:34:14.019Z,0.00
2022-11-09T03:34:44.476Z,0.00
2022-11-09T03:35:15.652Z,0.00
2022-11-09T03:35:46.351Z,0.00
2022-11-09T03:36:17.708Z,0.00
2022-11-09T03:36:48.509Z,0.00
2022-11-09T03:37:19.302Z,0.00
2022-11-09T03:37:51.775Z,0.00
2022-11-09T03:38:22.345Z,0.00
2022-11-09T03:38:52.867Z,0.00
2022-11-09T03:39:23.523Z,0.00
2022-11-09T03:39:54.990Z,0.00
2022-11-09T03:40:25.696Z,0.00
2022-11-09T03:40:56.628Z,0.00
2022-11-09T03:41:27.478Z,0.00
2022-11-09T03:41:59.350Z,0.00
2022-11-09T03:42:31.156Z,0.00
2022-11-09T03:43:01.924Z,0.00
2022-11-09T03:43:32.592Z,0.00
2022-11-09T03:44:03.720Z,0.00
2022-11-09T03:44:33.770Z,0.00
2022-11-09T03:45:05.324Z,0.00
2022-11-09T03:45:35.491Z,0.00
2022-11-09T03:46:06.695Z,0.00
2022-11-09T03:46:37.433Z,0.00
2022-11-09T03:47:24.262Z,0.00
2022-11-09T03:47:42.253Z,0.00
2022-11-09T03:48:12.973Z,0.00
2022-11-09T03:48:42.526Z,0.00
2022-11-09T03:49:13.145Z,0.00
2022-11-09T03:49:43.947Z,0.00
2022-11-09T03:50:15.230Z,0.00
2022-11-09T03:50:45.403Z,0.00
2022-11-09T03:51:17.873Z,0.00
2022-11-09T03:51:47.705Z,0.00
2022-11-09T03:52:27.322Z,0.00
2022-11-09T03:52:50.413Z,0.00
2022-11-09T03:53:22.148Z,0.00
2022-11-09T03:53:52.309Z,0.00
2022-11-09T03:54:22.781Z,0.00
2022-11-09T03:54:53.964Z,0.00
2022-11-09T03:55:24.425Z,0.00
2022-11-09T03:56:26.566Z,0.00
2022-11-09T03:57:28.957Z,0.00
2022-11-09T03:58:01.202Z,0.00
2022-11-09T03:58:32.032Z,0.00
2022-11-09T03:59:33.417Z,0.00
2022-11-09T04:00:04.737Z,0.00
2022-11-09T04:00:34.522Z,0.00
2022-11-09T04:01:05.576Z,0.00
2022-11-09T04:01:36.596Z,0.00
2022-11-09T04:02:07.682Z,0.00
2022-11-09T04:02:38.450Z,0.00
2022-11-09T04:03:10.875Z,0.00
2022-11-09T04:03:42.695Z,0.00
2022-11-09T04:04:13.119Z,0.00
2022-11-09T04:04:42.930Z,0.00
2022-11-09T04:05:14.112Z,0.00
2022-11-09T04:05:44.638Z,0.00
2022-11-09T04:06:15.720Z,0.00
2022-11-09T04:06:46.664Z,0.00
2022-11-09T04:07:17.438Z,0.00
2022-11-09T04:07:48.720Z,0.00
2022-11-09T04:08:19.386Z,0.00
2022-11-09T04:08:52.442Z,0.00
2022-11-09T04:09:23.518Z,0.00
2022-11-09T04:09:53.128Z,0.00
2022-11-09T04:10:23.810Z,0.00
2022-11-09T04:10:55.065Z,0.00
2022-11-09T04:11:25.359Z,0.00
2022-11-09T04:12:27.466Z,0.00
2022-11-09T04:13:31.910Z,0.00
2022-11-09T04:14:03.186Z,0.00
2022-11-09T04:14:33.682Z,0.00
2022-11-09T04:15:03.975Z,0.00
2022-11-09T04:15:34.309Z,0.00
2022-11-09T04:16:04.529Z,0.00
2022-11-09T04:16:35.417Z,0.00
2022-11-09T04:17:06.561Z,0.00
2022-11-09T04:17:37.450Z,0.00
2022-11-09T04:18:08.457Z,0.00
2022-11-09T04:18:39.746Z,0.00
2022-11-09T04:19:12.442Z,0.00
2022-11-09T04:19:42.505Z,0.00
2022-11-09T04:20:13.602Z,0.00
2022-11-09T04:20:43.784Z,0.00
2022-11-09T04:21:14.486Z,0.00
2022-11-09T04:21:45.375Z,0.00
2022-11-09T04:22:16.734Z,0.00
2022-11-09T04:22:47.776Z,0.00
2022-11-09T04:23:18.901Z,0.00
2022-11-09T04:23:50.649Z,0.00
2022-11-09T04:24:23.154Z,0.00
2022-11-09T04:24:53.420Z,0.00
2022-11-09T04:25:23.697Z,0.00
2022-11-09T04:25:53.977Z,0.00
2022-11-09T04:26:24.910Z,0.00
2022-11-09T04:26:55.707Z,0.00
2022-11-09T04:27:26.498Z,0.00
2022-11-09T04:27:57.650Z,0.00
2022-11-09T04:28:28.784Z,0.00
2022-11-09T04:29:01.186Z,0.00
2022-11-09T04:29:32.975Z,0.00
2022-11-09T04:30:04.038Z,0.00
2022-11-09T04:30:33.739Z,0.00
2022-11-09T04:31:04.572Z,0.00
2022-11-09T04:31:35.513Z,0.00
2022-11-09T04:32:06.240Z,0.00
2022-11-09T04:32:36.908Z,0.00
2022-11-09T04:33:07.861Z,0.00
2022-11-09T04:33:38.478Z,0.00
2022-11-09T04:34:09.944Z,0.00
2022-11-09T04:34:42.635Z,0.00
2022-11-09T04:35:14.001Z,0.00
2022-11-09T04:35:43.725Z,0.00
2022-11-09T04:36:13.814Z,0.00
2022-11-09T04:36:44.506Z,0.00
2022-11-09T04:37:15.422Z,0.00
2022-11-09T04:37:46.491Z,0.00
2022-11-09T04:38:17.633Z,0.00
2022-11-09T04:38:48.971Z,0.00
2022-11-09T04:39:19.568Z,0.00
2022-11-09T04:39:52.507Z,0.00
2022-11-09T04:40:22.571Z,0.00
2022-11-09T04:40:53.396Z,0.00
2022-11-09T04:41:24.022Z,0.00
2022-11-09T04:41:54.623Z,0.00
2022-11-09T04:42:25.526Z,0.00
2022-11-09T04:42:56.539Z,0.00
2022-11-09T04:43:27.671Z,0.00
2022-11-09T04:43:58.854Z,0.00
2022-11-09T04:44:29.660Z,0.00
2022-11-09T04:45:04.230Z,0.00
2022-11-09T04:45:33.170Z,0.00
2022-11-09T04:46:03.710Z,0.00
2022-11-09T04:46:33.929Z,0.00
2022-11-09T04:47:37.495Z,0.00
2022-11-09T04:48:06.832Z,0.00
2022-11-09T04:48:37.727Z,0.00
2022-11-09T04:49:08.666Z,0.00
2022-11-09T04:49:39.652Z,0.00
2022-11-09T04:50:12.913Z,0.00
2022-11-09T04:50:44.576Z,0.00
2022-11-09T04:51:13.830Z,0.00
2022-11-09T04:51:44.876Z,0.00
2022-11-09T04:52:14.757Z,0.00
2022-11-09T04:52:45.682Z,0.00
2022-11-09T04:53:34.354Z,0.00
2022-11-09T04:53:47.923Z,0.00
2022-11-09T04:54:18.753Z,0.00
2022-11-09T04:54:49.768Z,0.00
2022-11-09T04:55:21.614Z,0.00
2022-11-09T04:55:52.976Z,0.00
2022-11-09T04:56:23.649Z,0.00
2022-11-09T04:56:54.237Z,0.00
2022-11-09T04:57:25.172Z,0.00
2022-11-09T04:57:55.854Z,0.00
2022-11-09T04:58:26.514Z,0.00
2022-11-09T04:58:57.700Z,0.00
2022-11-09T04:59:28.996Z,0.00
2022-11-09T04:59:59.941Z,0.00
2022-11-09T05:00:31.053Z,0.00
2022-11-09T05:01:01.721Z,0.00
2022-11-09T05:01:33.318Z,0.00
2022-11-09T05:02:04.277Z,0.00
2022-11-09T05:02:35.181Z,0.00
2022-11-09T05:03:24.376Z,0.00
2022-11-09T05:03:37.682Z,0.00
2022-11-09T05:04:10.714Z,0.00
2022-11-09T05:04:39.517Z,0.00
2022-11-09T05:05:10.948Z,0.00
2022-11-09T05:05:47.031Z,0.00
2022-11-09T05:06:11.920Z,0.00
2022-11-09T05:06:43.063Z,0.00
2022-11-09T05:07:14.480Z,0.00
2022-11-09T05:07:44.855Z,0.00
2022-11-09T05:08:15.676Z,0.00
2022-11-09T05:08:47.441Z,0.00
2022-11-09T05:09:19.202Z,0.00
2022-11-09T05:09:49.308Z,0.00
2022-11-09T05:10:20.572Z,0.00
2022-11-09T05:10:50.671Z,0.00
2022-11-09T05:11:21.854Z,0.00
2022-11-09T05:11:53.133Z,0.00
2022-11-09T05:12:24.114Z,0.00
2022-11-09T05:12:55.427Z,0.00
2022-11-09T05:13:58.564Z,0.00
2022-11-09T05:14:28.476Z,0.00
2022-11-09T05:14:59.043Z,0.00
2022-11-09T05:15:30.482Z,0.00
2022-11-09T05:16:00.728Z,0.00
2022-11-09T05:16:32.522Z,0.00
2022-11-09T05:17:34.866Z,0.00
2022-11-09T05:18:05.213Z,0.00
2022-11-09T05:18:36.436Z,0.00
2022-11-09T05:19:08.027Z,0.00
2022-11-09T05:19:38.432Z,0.00
2022-11-09T05:20:10.706Z,0.00
2022-11-09T05:20:39.894Z,0.00
2022-11-09T05:21:46.404Z,0.00
2022-11-09T05:21:49.083Z,0.00
2022-11-09T05:22:12.707Z,0.00
2022-11-09T05:22:44.052Z,0.00
2022-11-09T05:23:14.963Z,0.00
2022-11-09T05:23:45.786Z,0.00
2022-11-09T05:24:18.491Z,0.00
2022-11-09T05:24:49.232Z,0.00
2022-11-09T05:25:19.467Z,0.00
2022-11-09T05:26:20.894Z,0.00
2022-11-09T05:26:52.647Z,0.00
2022-11-09T05:27:22.800Z,0.00
2022-11-09T05:27:54.475Z,0.00
2022-11-09T05:28:25.397Z,0.00
2022-11-09T05:28:56.576Z,0.00
2022-11-09T05:29:28.503Z,0.00
2022-11-09T05:29:59.174Z,0.00
2022-11-09T05:30:30.244Z,0.00
2022-11-09T05:31:01.945Z,0.00
2022-11-09T05:31:31.007Z,0.00
2022-11-09T05:32:02.356Z,0.00
2022-11-09T05:32:32.930Z,0.00
2022-11-09T05:33:04.975Z,0.00
2022-11-09T05:33:35.189Z,0.00
2022-11-09T05:34:06.392Z,0.00
2022-11-09T05:34:36.629Z,0.00
2022-11-09T05:35:09.628Z,0.00
2022-11-09T05:35:40.545Z,0.00
2022-11-09T05:36:10.251Z,0.00
2022-11-09T05:36:41.223Z,0.00
2022-11-09T05:37:12.004Z,0.00
2022-11-09T05:37:42.936Z,0.00
2022-11-09T05:38:13.833Z,0.00
2022-11-09T05:38:44.982Z,0.00
2022-11-09T05:39:32.948Z,0.00
2022-11-09T05:39:48.590Z,0.00
2022-11-09T05:40:20.387Z,0.00
2022-11-09T05:40:50.127Z,0.00
2022-11-09T05:41:19.985Z,0.00
2022-11-09T05:41:50.725Z,0.00
2022-11-09T05:42:21.749Z,0.00
2022-11-09T05:42:52.833Z,0.00
2022-11-09T05:43:24.022Z,0.00
2022-11-09T05:43:55.199Z,0.00
2022-11-09T05:44:25.836Z,0.00
2022-11-09T05:45:07.257Z,0.00
2022-11-09T05:45:42.471Z,0.00
2022-11-09T05:46:02.559Z,0.00
2022-11-09T05:46:29.744Z,0.00
2022-11-09T05:47:01.047Z,0.00
2022-11-09T05:47:31.658Z,0.00
2022-11-09T05:48:21.152Z,0.00
2022-11-09T05:48:34.064Z,0.00
2022-11-09T05:49:07.728Z,0.00
2022-11-09T05:49:42.899Z,0.00
2022-11-09T05:50:24.167Z,0.00
2022-11-09T05:50:39.775Z,0.00
2022-11-09T05:51:08.918Z,0.00
2022-11-09T05:51:40.053Z,0.00
2022-11-09T05:52:10.712Z,0.00
2022-11-09T05:52:41.817Z,0.00
2022-11-09T05:53:12.788Z,0.00
2022-11-09T05:53:46.364Z,0.00
2022-11-09T05:54:15.079Z,0.00
2022-11-09T05:54:46.118Z,0.00
2022-11-09T05:55:17.178Z,0.00
2022-11-09T05:56:18.918Z,0.00
2022-11-09T05:56:49.875Z,0.00
2022-11-09T05:57:20.762Z,0.00
2022-11-09T05:57:51.835Z,0.00
2022-11-09T05:58:22.691Z,0.00
2022-11-09T05:58:54.152Z,0.00
2022-11-09T05:59:24.987Z,0.00
2022-11-09T05:59:55.676Z,0.00
2022-11-09T06:00:29.737Z,0.00
2022-11-09T06:00:58.972Z,0.00
2022-11-09T06:01:29.014Z,0.00
2022-11-09T06:01:59.857Z,0.00
2022-11-09T06:02:31.342Z,0.00
2022-11-09T06:03:01.951Z,0.00
2022-11-09T06:03:32.732Z,0.00
2022-11-09T06:04:03.918Z,0.00
2022-11-09T06:04:34.974Z,0.00
2022-11-09T06:05:05.937Z,0.00
2022-11-09T06:05:38.950Z,0.00
2022-11-09T06:06:09.081Z,0.00
2022-11-09T06:06:39.723Z,0.00
2022-11-09T06:07:10.037Z,0.00
2022-11-09T06:07:41.095Z,0.00
2022-11-09T06:08:12.341Z,0.00
2022-11-09T06:08:43.234Z,0.00
2022-11-09T06:09:14.495Z,0.00
2022-11-09T06:09:45.407Z,0.00
2022-11-09T06:10:17.595Z,0.00
2022-11-09T06:10:48.110Z,0.00
2022-11-09T06:11:35.205Z,0.00
2022-11-09T06:11:49.601Z,0.00
2022-11-09T06:12:20.210Z,0.00
2022-11-09T06:12:51.071Z,0.00
2022-11-09T06:13:22.286Z,0.00
2022-11-09T06:13:53.162Z,0.00
2022-11-09T06:14:24.666Z,0.00
2022-11-09T06:15:15.834Z,0.00
2022-11-09T06:15:58.768Z,0.00
2022-11-09T06:16:28.983Z,0.00
2022-11-09T06:16:59.367Z,0.00
2022-11-09T06:17:29.820Z,0.00
2022-11-09T06:18:01.147Z,0.00
2022-11-09T06:18:32.212Z,0.00
2022-11-09T06:19:03.093Z,0.00
2022-11-09T06:19:35.264Z,0.00
2022-11-09T06:20:05.525Z,0.00
2022-11-09T06:20:39.110Z,0.00
2022-11-09T06:21:07.742Z,0.00
2022-11-09T06:21:39.012Z,0.00
2022-11-09T06:22:09.410Z,0.00
2022-11-09T06:22:41.528Z,0.00
2022-11-09T06:23:16.032Z,0.36
2022-11-09T06:23:42.050Z,0.00
2022-11-09T06:24:13.114Z,0.00
2022-11-09T06:24:44.260Z,0.00
2022-11-09T06:25:15.487Z,0.00
2022-11-09T06:25:46.425Z,0.00
2022-11-09T06:26:17.297Z,0.00
2022-11-09T06:26:49.742Z,0.00
2022-11-09T06:27:19.767Z,0.00
2022-11-09T06:27:50.311Z,0.00
2022-11-09T06:28:39.315Z,0.00
2022-11-09T06:28:52.160Z,0.00
2022-11-09T06:29:54.421Z,0.00
2022-11-09T06:30:25.979Z,0.00
2022-11-09T06:30:55.888Z,0.00
2022-11-09T06:31:28.639Z,0.00
2022-11-09T06:31:59.014Z,0.00
2022-11-09T06:32:29.869Z,0.00
2022-11-09T06:33:00.371Z,0.85
2022-11-09T06:33:31.031Z,0.00
2022-11-09T06:34:02.374Z,0.36
2022-11-09T06:34:33.142Z,0.36
2022-11-09T06:35:05.369Z,0.36
2022-11-09T06:35:35.370Z,0.85
2022-11-09T06:36:06.111Z,0.36
2022-11-09T06:36:39.116Z,1.22
2022-11-09T06:37:09.973Z,0.36
2022-11-09T06:37:40.354Z,1.22
2022-11-09T06:38:11.116Z,1.22
2022-11-09T06:38:41.179Z,0.85
2022-11-09T06:39:12.382Z,1.22
2022-11-09T06:39:43.267Z,1.22
2022-11-09T06:40:23.004Z,0.36
2022-11-09T06:40:45.039Z,0.36
2022-11-09T06:41:15.921Z,0.36
2022-11-09T06:41:48.285Z,0.36
2022-11-09T06:42:19.546Z,0.85
2022-11-09T06:42:50.110Z,0.85
2022-11-09T06:43:21.135Z,0.85
2022-11-09T06:43:51.060Z,1.71
2022-11-09T06:44:22.039Z,1.71
2022-11-09T06:44:53.315Z,2.57
2022-11-09T06:45:24.852Z,2.08
2022-11-09T06:45:55.659Z,2.57
2022-11-09T06:46:26.215Z,2.94
2022-11-09T06:46:59.115Z,3.43
2022-11-09T06:47:29.576Z,3.43
2022-11-09T06:48:01.101Z,3.79
2022-11-09T06:48:30.016Z,4.28
2022-11-09T06:49:01.423Z,4.28
2022-11-09T06:49:32.020Z,4.77
2022-11-09T06:50:03.288Z,5.14
2022-11-09T06:50:34.457Z,5.14
2022-11-09T06:51:05.594Z,5.14
2022-11-09T06:51:36.710Z,5.63
2022-11-09T06:52:10.093Z,5.14
2022-11-09T06:52:40.792Z,5.14
2022-11-09T06:53:09.752Z,4.77
2022-11-09T06:53:40.881Z,5.63
2022-11-09T06:54:11.709Z,6.48
2022-11-09T06:54:42.269Z,5.14
2022-11-09T06:55:13.155Z,5.63
2022-11-09T06:55:49.083Z,5.63
2022-11-09T06:56:15.521Z,5.63
2022-11-09T06:56:46.087Z,5.63
2022-11-09T06:57:18.517Z,5.63
2022-11-09T06:57:50.613Z,5.14
2022-11-09T06:58:20.352Z,5.99
2022-11-09T06:58:50.405Z,6.48
2022-11-09T06:59:21.263Z,6.48
2022-11-09T06:59:52.208Z,7.34
2022-11-09T07:00:24.165Z,8.19
2022-11-09T07:00:54.470Z,8.56
2022-11-09T07:01:25.552Z,9.05
2022-11-09T07:02:01.060Z,9.05
2022-11-09T07:02:28.133Z,10.39
2022-11-09T07:03:00.258Z,10.77
2022-11-09T07:03:30.937Z,10.39
2022-11-09T07:04:00.840Z,11.25
2022-11-09T07:04:31.519Z,11.62
2022-11-09T07:05:02.702Z,12.97
2022-11-09T07:05:49.858Z,12.97
2022-11-09T07:06:04.080Z,12.97
2022-11-09T07:06:35.880Z,13.82
2022-11-09T07:07:06.690Z,14.68
2022-11-09T07:07:38.556Z,14.68
2022-11-09T07:08:10.318Z,14.31
2022-11-09T07:08:40.535Z,15.17
2022-11-09T07:09:10.921Z,14.68
2022-11-09T07:09:41.871Z,15.53